Time;durP1;ratioP1;P1;durP2;ratioP2;P2;SDS_P1;SDS_P2;PMS_P1;PMS_P2;Temp;Humidity;BMP_temperature;BMP_pressure;BME280_temperature;BME280_humidity;BME280_pressure;Samples;Min_cycle;Max_cycle;Signal;HPM_P1;HPM_P2
2024/03/04 00:00:50;;;;;;;30.23;25.70;;;5.90;99.90;;;;;;5084413;28;20054;-67
2024/03/04 00:03:16;;;;;;;37.08;24.98;;;5.90;99.90;;;;;;5083235;28;20047;-66
2024/03/04 00:05:42;;;;;;;33.70;24.88;;;5.80;99.90;;;;;;5086174;28;20036;-67
2024/03/04 00:08:08;;;;;;;32.95;24.73;;;5.80;99.90;;;;;;5081546;28;20036;-67
2024/03/04 00:10:33;;;;;;;31.55;25.35;;;5.70;99.90;;;;;;5082096;28;20036;-67
2024/03/04 00:12:59;;;;;;;31.27;26.90;;;5.70;99.90;;;;;;5082206;28;20032;-67
2024/03/04 00:15:25;;;;;;;35.13;28.15;;;5.70;99.90;;;;;;5086087;28;20050;-67
2024/03/04 00:17:53;;;;;;;30.65;25.33;;;5.60;99.90;;;;;;5084510;28;20032;-67
2024/03/04 00:20:19;;;;;;;30.75;24.70;;;5.60;99.90;;;;;;5089289;28;20032;-67
2024/03/04 00:22:47;;;;;;;28.88;23.80;;;5.60;99.90;;;;;;5083949;28;20044;-67
2024/03/04 00:25:16;;;;;;;29.92;24.13;;;5.60;99.90;;;;;;5111444;27;20049;-67
2024/03/04 00:27:43;;;;;;;30.33;25.05;;;5.60;99.90;;;;;;5083398;28;20041;-67
2024/03/04 00:30:10;;;;;;;33.85;27.40;;;5.60;99.90;;;;;;5077675;28;20091;-66
2024/03/04 00:32:36;;;;;;;31.63;26.08;;;5.70;99.90;;;;;;5096627;28;20536;-67
2024/03/04 00:35:03;;;;;;;30.70;25.38;;;5.60;99.90;;;;;;5084374;28;20040;-67
2024/03/04 00:37:29;;;;;;;27.95;21.38;;;5.70;99.90;;;;;;5079313;28;20738;-67
2024/03/04 00:39:55;;;;;;;29.75;24.17;;;5.70;99.90;;;;;;5077914;28;20050;-67
2024/03/04 00:42:22;;;;;;;31.13;26.27;;;5.70;99.90;;;;;;5080600;28;20044;-66
2024/03/04 00:44:48;;;;;;;33.53;27.10;;;5.70;99.90;;;;;;5109659;27;20512;-66
2024/03/04 00:47:14;;;;;;;33.60;28.48;;;5.70;99.90;;;;;;5080274;28;20044;-67
2024/03/04 00:49:39;;;;;;;30.42;25.40;;;5.70;99.90;;;;;;5081358;28;20036;-66
2024/03/04 00:52:05;;;;;;;35.13;26.10;;;5.70;99.90;;;;;;5084447;28;20044;-66
2024/03/04 00:54:31;;;;;;;34.83;26.85;;;5.70;99.90;;;;;;5081983;28;20162;-67
2024/03/04 00:56:56;;;;;;;30.75;25.65;;;5.70;99.90;;;;;;5080935;28;20154;-66
2024/03/04 00:59:23;;;;;;;33.17;26.20;;;5.70;99.90;;;;;;5081795;28;20028;-66
2024/03/04 01:01:50;;;;;;;36.83;27.70;;;5.70;99.90;;;;;;5102223;28;20036;-67
2024/03/04 01:04:16;;;;;;;30.90;26.50;;;5.60;99.90;;;;;;5079662;28;20405;-67
2024/03/04 01:06:41;;;;;;;30.27;23.75;;;5.70;99.90;;;;;;5083188;28;20119;-67
2024/03/04 01:09:10;;;;;;;36.05;29.35;;;5.60;99.90;;;;;;5079712;28;20521;-67
2024/03/04 01:11:36;;;;;;;38.38;28.73;;;5.60;99.90;;;;;;5078915;28;20056;-67
2024/03/04 01:14:02;;;;;;;34.08;24.20;;;5.50;99.90;;;;;;5082866;28;20036;-67
2024/03/04 01:16:28;;;;;;;32.55;26.30;;;5.60;99.90;;;;;;5081986;28;20032;-67
2024/03/04 01:18:54;;;;;;;34.70;29.48;;;5.60;99.90;;;;;;5083526;28;20040;-66
2024/03/04 01:21:20;;;;;;;33.70;26.63;;;5.60;99.90;;;;;;5082457;28;20124;-67
2024/03/04 01:23:46;;;;;;;35.33;28.63;;;5.60;99.90;;;;;;5079038;28;20131;-67
2024/03/04 01:26:14;;;;;;;39.45;30.65;;;5.60;99.90;;;;;;5082473;28;20044;-67
2024/03/04 01:28:40;;;;;;;38.50;30.85;;;5.60;99.90;;;;;;5078937;28;20411;-67
2024/03/04 01:31:07;;;;;;;33.10;27.52;;;5.60;99.90;;;;;;5080067;28;20433;-67
2024/03/04 01:33:33;;;;;;;32.72;28.40;;;5.60;99.90;;;;;;5078597;28;20044;-66
2024/03/04 01:36:00;;;;;;;29.20;24.50;;;5.60;99.90;;;;;;5082540;28;20113;-67
2024/03/04 01:38:26;;;;;;;27.13;22.40;;;5.50;99.90;;;;;;5078225;28;20081;-66
2024/03/04 01:40:52;;;;;;;25.55;21.45;;;5.40;99.90;;;;;;5077953;28;20603;-66
2024/03/04 01:43:18;;;;;;;23.48;19.92;;;5.30;99.90;;;;;;5079053;28;20639;-66
2024/03/04 01:45:43;;;;;;;24.67;20.25;;;5.20;99.90;;;;;;5083412;28;20039;-67
2024/03/04 01:48:10;;;;;;;26.85;20.85;;;5.10;99.90;;;;;;5082073;28;20429;-67
2024/03/04 01:50:39;;;;;;;26.63;21.35;;;5.10;99.90;;;;;;5079142;28;20032;-67
2024/03/04 01:53:06;;;;;;;30.50;22.05;;;5.10;99.90;;;;;;5080303;28;20484;-67
2024/03/04 01:55:37;;;;;;;24.27;19.60;;;5.00;99.90;;;;;;5076934;28;20040;-66
2024/03/04 01:58:05;;;;;;;19.35;16.80;;;5.00;99.90;;;;;;5079243;28;20533;-66
2024/03/04 02:00:34;;;;;;;20.13;17.02;;;4.90;99.90;;;;;;5078075;28;20039;-67
2024/03/04 02:03:00;;;;;;;21.65;19.08;;;4.90;99.90;;;;;;5081716;28;20043;-67
2024/03/04 02:05:26;;;;;;;28.92;22.52;;;4.80;99.90;;;;;;5079403;28;20178;-67
2024/03/04 02:07:52;;;;;;;24.25;18.77;;;4.80;99.90;;;;;;5083237;28;20126;-67
2024/03/04 02:10:17;;;;;;;21.10;18.67;;;4.80;99.90;;;;;;5077482;28;20039;-67
2024/03/04 02:12:44;;;;;;;25.48;19.92;;;4.80;99.90;;;;;;5083024;28;20036;-67
2024/03/04 02:15:09;;;;;;;25.30;21.15;;;4.60;99.90;;;;;;5081845;28;20424;-67
2024/03/04 02:17:35;;;;;;;26.27;23.23;;;4.60;99.90;;;;;;5111319;27;20043;-66
2024/03/04 02:20:21;;;;;;;23.88;20.48;;;4.70;99.90;;;;;;5079912;28;20486;-66
2024/03/04 02:22:47;;;;;;;26.15;21.33;;;4.60;99.90;;;;;;5078110;28;20486;-67
2024/03/04 02:25:12;;;;;;;27.08;22.60;;;4.60;99.90;;;;;;5078306;28;20047;-67
2024/03/04 02:27:38;;;;;;;22.40;18.33;;;4.50;99.90;;;;;;5081125;28;20037;-67
2024/03/04 02:30:07;;;;;;;18.70;15.32;;;4.50;99.90;;;;;;5078831;28;20075;-66
2024/03/04 02:32:34;;;;;;;21.02;17.83;;;4.40;99.90;;;;;;5084768;28;20044;-66
2024/03/04 02:35:04;;;;;;;22.17;19.15;;;4.30;99.90;;;;;;5078499;28;20379;-66
2024/03/04 02:37:33;;;;;;;24.67;21.35;;;4.40;99.90;;;;;;5079179;28;20419;-67
2024/03/04 02:40:00;;;;;;;26.85;20.50;;;4.40;99.90;;;;;;5074909;28;20159;-67
2024/03/04 02:42:26;;;;;;;23.25;20.23;;;4.40;99.90;;;;;;5079935;28;20055;-66
2024/03/04 02:44:51;;;;;;;28.98;17.42;;;4.40;99.90;;;;;;5077812;28;20047;-67
2024/03/04 02:47:17;;;;;;;25.35;19.25;;;4.40;99.90;;;;;;5080796;28;20107;-66
2024/03/04 02:49:43;;;;;;;38.60;24.80;;;4.30;99.90;;;;;;5078844;28;20044;-67
2024/03/04 02:52:09;;;;;;;28.90;23.02;;;4.30;99.90;;;;;;5081660;28;20920;-66
2024/03/04 02:54:34;;;;;;;32.55;25.02;;;4.30;99.90;;;;;;5078188;28;20036;-67
2024/03/04 02:57:01;;;;;;;31.20;24.60;;;4.40;99.90;;;;;;5080330;28;20032;-66
2024/03/04 02:59:26;;;;;;;28.85;23.30;;;4.40;99.90;;;;;;5078402;28;20033;-67
2024/03/04 03:01:53;;;;;;;27.38;21.15;;;4.40;99.90;;;;;;5079395;28;20031;-67
2024/03/04 03:04:18;;;;;;;25.67;21.40;;;4.40;99.90;;;;;;5081070;28;20093;-67
2024/03/04 03:06:44;;;;;;;24.67;20.95;;;4.30;99.90;;;;;;5085803;28;21543;-67
2024/03/04 03:09:11;;;;;;;30.40;22.52;;;4.40;99.90;;;;;;5087805;28;20075;-67
2024/03/04 03:11:37;;;;;;;34.63;27.80;;;4.40;99.90;;;;;;5085959;28;20609;-67
2024/03/04 03:14:03;;;;;;;41.70;27.80;;;4.40;99.90;;;;;;5082879;28;20054;-67
2024/03/04 03:16:29;;;;;;;33.10;25.67;;;4.40;99.90;;;;;;5085162;28;20040;-67
2024/03/04 03:18:57;;;;;;;33.08;25.15;;;4.40;99.90;;;;;;5083773;28;20047;-66
2024/03/04 03:21:23;;;;;;;36.70;26.75;;;4.40;99.90;;;;;;5112616;27;20043;-66
2024/03/04 03:23:52;;;;;;;33.60;26.88;;;4.50;99.90;;;;;;5084001;28;20044;-67
2024/03/04 03:26:18;;;;;;;31.27;24.77;;;4.40;99.90;;;;;;5111471;27;20036;-67
2024/03/04 03:28:43;;;;;;;40.00;28.15;;;4.50;99.90;;;;;;5085059;28;20055;-66
2024/03/04 03:31:10;;;;;;;42.38;29.70;;;4.50;99.90;;;;;;5081405;28;20135;-67
2024/03/04 03:33:36;;;;;;;37.05;28.75;;;4.40;99.90;;;;;;5083215;28;20044;-67
2024/03/04 03:36:03;;;;;;;44.67;31.42;;;4.50;99.90;;;;;;5069019;28;20086;-67
2024/03/04 03:38:29;;;;;;;44.17;32.35;;;4.40;99.90;;;;;;5082490;28;20047;-67
2024/03/04 03:40:55;;;;;;;52.00;34.38;;;4.50;99.90;;;;;;5089607;28;20055;-67
2024/03/04 03:43:21;;;;;;;51.13;35.25;;;4.50;99.90;;;;;;5083902;28;20047;-67
2024/03/04 03:45:47;;;;;;;51.22;34.20;;;4.50;99.90;;;;;;5084092;28;20048;-67
2024/03/04 03:48:17;;;;;;;57.95;32.13;;;4.60;99.90;;;;;;5084344;28;20072;-67
2024/03/04 03:50:44;;;;;;;73.97;32.33;;;4.60;99.90;;;;;;5081574;28;20072;-67
2024/03/04 03:53:09;;;;;;;99.95;32.90;;;4.60;99.90;;;;;;5064954;28;20057;-67
2024/03/04 03:55:35;;;;;;;99.18;33.95;;;4.60;99.90;;;;;;5083177;28;20036;-67
2024/03/04 03:58:00;;;;;;;127.28;32.10;;;4.70;99.90;;;;;;5079282;28;20536;-67
2024/03/04 04:00:26;;;;;;;71.05;31.45;;;4.70;99.90;;;;;;5087421;28;20032;-66
2024/03/04 04:02:52;;;;;;;90.30;31.52;;;4.70;99.90;;;;;;5115704;27;20036;-67
2024/03/04 04:05:18;;;;;;;134.55;33.75;;;4.80;99.90;;;;;;5083765;28;20075;-66
2024/03/04 04:07:44;;;;;;;105.90;33.13;;;4.80;99.90;;;;;;5084876;28;20025;-66
2024/03/04 04:10:09;;;;;;;95.97;32.70;;;4.80;99.90;;;;;;5082501;28;20050;-66
2024/03/04 04:12:35;;;;;;;79.57;31.45;;;4.90;99.90;;;;;;5083584;28;20044;-67
2024/03/04 04:15:01;;;;;;;68.75;32.67;;;4.90;99.90;;;;;;5081047;28;20070;-67
2024/03/04 04:17:27;;;;;;;196.85;37.60;;;5.00;99.90;;;;;;5083151;28;20451;-67
2024/03/04 04:19:53;;;;;;;158.38;36.40;;;5.00;99.90;;;;;;5082892;28;20033;-66
2024/03/04 04:22:18;;;;;;;139.77;34.83;;;4.90;99.90;;;;;;5081730;28;20061;-67
2024/03/04 04:24:45;;;;;;;80.13;32.20;;;5.00;99.90;;;;;;5086128;28;20082;-67
2024/03/04 04:27:10;;;;;;;72.55;32.22;;;5.10;99.90;;;;;;5085631;28;20063;-67
2024/03/04 04:29:36;;;;;;;80.45;32.35;;;5.10;99.90;;;;;;5083099;28;20036;-67
2024/03/04 04:32:02;;;;;;;219.75;40.08;;;5.10;99.90;;;;;;5083066;28;20544;-67
2024/03/04 04:34:28;;;;;;;91.80;32.00;;;5.10;99.90;;;;;;5082824;28;20044;-67
2024/03/04 04:36:54;;;;;;;181.52;37.15;;;5.10;99.90;;;;;;5081079;28;20039;-66
2024/03/04 04:39:19;;;;;;;98.22;30.50;;;5.10;99.90;;;;;;5079496;28;20094;-67
2024/03/04 04:41:45;;;;;;;127.97;30.95;;;5.20;99.90;;;;;;5080557;28;20055;-67
2024/03/04 04:44:11;;;;;;;125.28;31.52;;;5.10;99.90;;;;;;5083677;28;20048;-67
2024/03/04 04:46:37;;;;;;;69.60;30.63;;;5.20;99.90;;;;;;5082042;28;20056;-66
2024/03/04 04:49:07;;;;;;;224.77;39.03;;;5.30;99.90;;;;;;5085291;28;20043;-67
2024/03/04 04:51:33;;;;;;;76.75;31.90;;;5.20;99.90;;;;;;5082690;28;20042;-67
2024/03/04 04:53:59;;;;;;;209.02;38.22;;;5.30;99.90;;;;;;5084792;28;21004;-67
2024/03/04 04:56:27;;;;;;;161.60;34.92;;;5.30;99.90;;;;;;5084802;28;20043;-66
2024/03/04 04:58:52;;;;;;;64.45;32.45;;;5.30;99.90;;;;;;5111569;27;20045;-67
2024/03/04 05:01:28;;;;;;;98.22;33.22;;;5.30;99.90;;;;;;5078986;28;20043;-67
2024/03/04 05:03:54;;;;;;;82.53;32.78;;;5.40;99.90;;;;;;5084010;28;20045;-67
2024/03/04 05:06:21;;;;;;;55.85;31.15;;;5.30;99.90;;;;;;5080600;28;20056;-67
2024/03/04 05:08:47;;;;;;;163.18;39.33;;;5.40;99.90;;;;;;5080188;28;20116;-67
2024/03/04 05:11:13;;;;;;;116.55;35.78;;;5.40;99.90;;;;;;5082077;28;20399;-67
2024/03/04 05:13:39;;;;;;;79.13;32.40;;;5.40;99.90;;;;;;5085748;28;20040;-67
2024/03/04 05:16:06;;;;;;;80.57;33.60;;;5.40;99.90;;;;;;5080689;28;20041;-67
2024/03/04 05:18:31;;;;;;;65.38;34.15;;;5.40;99.90;;;;;;5082634;28;20493;-67
2024/03/04 05:20:57;;;;;;;106.43;34.08;;;5.40;99.90;;;;;;5082493;28;20043;-66
2024/03/04 05:23:23;;;;;;;82.05;33.70;;;5.50;99.90;;;;;;5077263;28;20033;-67
2024/03/04 05:25:49;;;;;;;82.30;33.80;;;5.50;99.90;;;;;;5077567;28;20565;-67
2024/03/04 05:28:15;;;;;;;120.15;36.10;;;5.50;99.90;;;;;;5079527;28;20046;-67
2024/03/04 05:30:41;;;;;;;77.55;34.58;;;5.50;99.90;;;;;;5112998;27;20055;-67
2024/03/04 05:33:10;;;;;;;75.40;33.63;;;5.60;99.90;;;;;;5081248;28;20036;-66
2024/03/04 05:35:36;;;;;;;72.82;32.92;;;5.50;99.90;;;;;;5083929;28;20032;-67
2024/03/04 05:38:02;;;;;;;77.43;34.08;;;5.60;99.90;;;;;;5080724;28;20066;-67
2024/03/04 05:40:28;;;;;;;86.22;35.08;;;5.60;99.90;;;;;;5078881;28;20040;-67
2024/03/04 05:42:54;;;;;;;79.45;35.00;;;5.60;99.90;;;;;;5083019;28;20163;-67
2024/03/04 05:45:20;;;;;;;107.35;34.72;;;5.70;99.90;;;;;;5081062;28;20493;-67
2024/03/04 05:47:46;;;;;;;73.78;33.22;;;5.70;99.90;;;;;;5082001;28;20710;-67
2024/03/04 05:50:14;;;;;;;92.95;35.08;;;5.70;99.90;;;;;;5075052;28;20040;-67
2024/03/04 05:52:41;;;;;;;211.85;41.15;;;5.70;99.90;;;;;;5074483;28;20040;-67
2024/03/04 05:55:07;;;;;;;81.00;34.72;;;5.70;99.90;;;;;;5076457;28;20078;-67
2024/03/04 05:57:34;;;;;;;61.40;33.45;;;5.80;99.90;;;;;;5079257;28;20558;-67
2024/03/04 06:00:03;;;;;;;70.28;33.05;;;5.80;99.90;;;;;;5080111;28;20036;-66
2024/03/04 06:02:29;;;;;;;88.32;35.88;;;5.80;99.90;;;;;;5080409;28;20103;-67
2024/03/04 06:04:55;;;;;;;54.60;34.58;;;5.90;99.90;;;;;;5088230;28;20091;-67
2024/03/04 06:07:21;;;;;;;61.90;35.72;;;5.90;99.90;;;;;;5081224;28;20044;-67
2024/03/04 06:09:47;;;;;;;79.43;34.97;;;5.90;99.90;;;;;;5075883;28;20044;-67
2024/03/04 06:12:13;;;;;;;65.70;34.22;;;5.90;99.90;;;;;;5111225;27;20048;-67
2024/03/04 06:14:39;;;;;;;79.30;35.08;;;6.10;99.90;;;;;;5082562;28;20394;-67
2024/03/04 06:17:05;;;;;;;57.75;34.75;;;5.90;99.90;;;;;;5084657;28;20036;-67
2024/03/04 06:19:31;;;;;;;66.88;35.40;;;6.00;99.90;;;;;;5081362;28;20084;-67
2024/03/04 06:21:57;;;;;;;76.55;36.63;;;6.00;99.90;;;;;;5111917;27;20078;-67
2024/03/04 06:24:23;;;;;;;117.82;38.60;;;6.10;99.90;;;;;;5109597;27;20078;-67
2024/03/04 06:26:48;;;;;;;221.57;45.00;;;6.10;99.90;;;;;;5081125;28;20044;-67
2024/03/04 06:29:14;;;;;;;79.13;37.50;;;6.10;99.90;;;;;;5081121;28;20064;-67
2024/03/04 06:31:40;;;;;;;64.95;36.17;;;6.10;99.90;;;;;;5062765;28;20102;-66
2024/03/04 06:34:05;;;;;;;140.55;39.22;;;6.20;99.90;;;;;;5061913;28;20047;-67
2024/03/04 06:36:31;;;;;;;99.93;38.63;;;6.10;99.90;;;;;;5079270;28;20037;-67
2024/03/04 06:38:57;;;;;;;69.20;37.13;;;6.20;99.90;;;;;;5077442;28;20044;-67
2024/03/04 06:41:23;;;;;;;82.35;37.53;;;6.20;99.90;;;;;;5119878;27;20061;-67
2024/03/04 06:43:48;;;;;;;154.45;42.60;;;6.20;99.90;;;;;;5085692;28;20115;-67
2024/03/04 06:46:14;;;;;;;84.35;37.78;;;6.20;99.90;;;;;;5086029;28;20036;-67
2024/03/04 06:48:40;;;;;;;301.42;49.50;;;6.30;99.90;;;;;;5079133;28;20056;-67
2024/03/04 06:51:05;;;;;;;105.80;39.33;;;6.30;99.90;;;;;;5083011;28;20037;-67
2024/03/04 06:53:31;;;;;;;174.45;42.67;;;6.40;99.90;;;;;;5090713;28;20043;-67
2024/03/04 06:55:57;;;;;;;80.07;40.50;;;6.40;99.90;;;;;;5083252;28;20134;-67
2024/03/04 06:58:23;;;;;;;75.70;38.60;;;6.40;99.90;;;;;;5081671;28;20079;-67
2024/03/04 07:00:51;;;;;;;87.03;39.28;;;6.40;99.90;;;;;;5083221;28;20063;-67
2024/03/04 07:03:17;;;;;;;87.55;39.05;;;6.40;99.90;;;;;;5080908;28;20044;-66
2024/03/04 07:05:43;;;;;;;78.45;40.53;;;6.40;99.90;;;;;;5075515;28;20123;-67
2024/03/04 07:08:09;;;;;;;104.65;39.53;;;6.50;99.90;;;;;;5085152;28;20485;-67
2024/03/04 07:10:36;;;;;;;98.78;40.17;;;6.50;99.90;;;;;;5083311;28;20104;-67
2024/03/04 07:13:02;;;;;;;143.80;42.17;;;6.60;99.90;;;;;;5080924;28;20039;-67
2024/03/04 07:15:28;;;;;;;97.50;39.35;;;6.50;99.90;;;;;;5078845;28;20036;-67
2024/03/04 07:17:55;;;;;;;96.65;39.63;;;6.60;99.90;;;;;;5088151;28;20081;-67
2024/03/04 07:20:20;;;;;;;90.65;40.10;;;6.60;99.90;;;;;;5079947;28;20428;-67
2024/03/04 07:22:46;;;;;;;158.43;43.60;;;6.60;99.90;;;;;;5081022;28;20040;-67
2024/03/04 07:25:11;;;;;;;126.00;43.17;;;6.70;99.90;;;;;;5082073;28;20521;-67
2024/03/04 07:27:37;;;;;;;87.55;41.65;;;6.80;99.90;;;;;;5076492;28;20044;-67
2024/03/04 07:30:03;;;;;;;88.40;38.47;;;6.90;99.90;;;;;;5079388;28;20055;-67
2024/03/04 07:32:29;;;;;;;82.55;38.58;;;6.90;99.90;;;;;;5112916;27;20130;-67
2024/03/04 07:34:54;;;;;;;80.78;39.08;;;6.90;99.90;;;;;;5083902;28;20123;-67
2024/03/04 07:37:20;;;;;;;78.82;37.63;;;7.00;99.90;;;;;;5081853;28;20068;-67
2024/03/04 07:39:47;;;;;;;86.15;38.67;;;7.00;99.90;;;;;;5067250;28;20040;-67
2024/03/04 07:42:13;;;;;;;97.63;39.22;;;7.00;99.90;;;;;;5080522;28;20059;-67
2024/03/04 07:44:39;;;;;;;89.88;39.22;;;7.10;99.90;;;;;;5081614;28;20044;-67
2024/03/04 07:47:05;;;;;;;93.13;38.75;;;7.10;99.90;;;;;;5082678;28;20062;-67
2024/03/04 07:49:31;;;;;;;76.70;36.47;;;7.20;99.90;;;;;;5077194;28;20047;-67
2024/03/04 07:51:57;;;;;;;77.25;36.42;;;7.20;99.90;;;;;;5085531;28;20040;-66
2024/03/04 07:54:23;;;;;;;77.50;37.20;;;7.30;99.90;;;;;;5084232;28;20040;-67
2024/03/04 07:56:49;;;;;;;95.20;39.63;;;7.30;99.90;;;;;;5082188;28;20040;-67
2024/03/04 07:59:15;;;;;;;88.15;38.50;;;7.30;99.90;;;;;;5084023;28;20119;-67
2024/03/04 08:01:50;;;;;;;90.85;38.60;;;7.40;99.90;;;;;;5078754;28;20128;-67
2024/03/04 08:04:20;;;;;;;83.18;39.35;;;7.40;99.90;;;;;;5079114;28;20048;-67
2024/03/04 08:06:46;;;;;;;95.05;40.85;;;7.40;99.90;;;;;;5081494;28;20044;-67
2024/03/04 08:09:14;;;;;;;87.80;38.70;;;7.40;99.90;;;;;;5080174;28;20044;-67
2024/03/04 08:11:40;;;;;;;80.75;37.70;;;7.50;99.90;;;;;;5113934;27;20052;-67
2024/03/04 08:14:05;;;;;;;82.03;37.90;;;7.40;99.90;;;;;;5083108;28;20063;-67
2024/03/04 08:16:31;;;;;;;82.22;37.70;;;7.50;99.90;;;;;;5083216;28;20532;-67
2024/03/04 08:18:56;;;;;;;113.60;41.42;;;7.50;99.90;;;;;;5082480;28;20046;-66
2024/03/04 08:21:22;;;;;;;91.72;39.50;;;7.50;99.90;;;;;;5112105;27;20040;-66
2024/03/04 08:23:48;;;;;;;92.78;38.35;;;7.50;99.90;;;;;;5064877;28;20063;-67
2024/03/04 08:26:13;;;;;;;94.82;40.15;;;7.60;99.90;;;;;;5082101;28;20047;-67
2024/03/04 08:28:40;;;;;;;87.20;38.15;;;7.60;99.90;;;;;;5082624;28;20082;-67
2024/03/04 08:31:06;;;;;;;93.28;38.15;;;7.60;99.90;;;;;;5081826;28;20102;-67
2024/03/04 08:33:35;;;;;;;82.45;36.95;;;7.70;99.90;;;;;;5110249;27;20532;-67
2024/03/04 08:36:00;;;;;;;86.35;36.83;;;7.70;99.90;;;;;;5080709;28;20097;-67
2024/03/04 08:38:26;;;;;;;83.85;37.63;;;7.70;99.90;;;;;;5078784;28;20478;-67
2024/03/04 08:40:52;;;;;;;127.72;41.38;;;7.70;99.90;;;;;;5081369;28;20075;-67
2024/03/04 08:43:19;;;;;;;90.28;38.63;;;7.70;99.90;;;;;;5112752;27;20051;-67
2024/03/04 08:45:44;;;;;;;87.05;37.85;;;7.70;99.90;;;;;;5083811;28;20044;-68
2024/03/04 08:48:10;;;;;;;79.03;37.28;;;7.80;99.90;;;;;;5080195;28;20060;-67
2024/03/04 08:50:36;;;;;;;81.05;36.50;;;7.80;99.90;;;;;;5083386;28;20181;-67
2024/03/04 08:53:01;;;;;;;74.38;37.03;;;7.90;99.90;;;;;;5081141;28;20064;-67
2024/03/04 08:55:27;;;;;;;79.88;37.10;;;7.90;99.90;;;;;;5078118;28;20048;-66
2024/03/04 08:57:53;;;;;;;73.75;37.28;;;7.90;99.90;;;;;;5082809;28;20149;-67
2024/03/04 09:00:19;;;;;;;68.30;34.70;;;7.90;99.90;;;;;;5081428;28;20143;-67
2024/03/04 09:02:45;;;;;;;70.53;36.05;;;7.90;99.90;;;;;;5076310;28;20139;-67
2024/03/04 09:05:11;;;;;;;78.72;36.50;;;7.90;99.90;;;;;;5081694;28;20554;-67
2024/03/04 09:07:36;;;;;;;71.25;35.95;;;8.00;99.90;;;;;;5086112;28;20044;-67
2024/03/04 09:10:04;;;;;;;81.75;37.35;;;8.00;99.90;;;;;;5077387;28;20123;-67
2024/03/04 09:12:30;;;;;;;76.22;35.78;;;8.00;99.90;;;;;;5078094;28;20075;-67
2024/03/04 09:14:56;;;;;;;65.63;35.20;;;8.00;99.90;;;;;;5076987;28;20029;-67
2024/03/04 09:17:22;;;;;;;62.42;33.55;;;8.10;99.90;;;;;;5083014;28;20036;-67
2024/03/04 09:19:48;;;;;;;63.42;32.45;;;8.10;99.90;;;;;;5109064;27;20056;-67
2024/03/04 09:22:14;;;;;;;70.78;34.33;;;8.10;99.90;;;;;;5081466;28;20131;-67
2024/03/04 09:24:42;;;;;;;59.72;32.88;;;8.20;99.90;;;;;;5080544;28;20497;-67
2024/03/04 09:27:08;;;;;;;58.53;32.20;;;8.20;99.90;;;;;;5083788;28;20040;-67
2024/03/04 09:29:34;;;;;;;61.53;32.00;;;8.20;99.90;;;;;;5060331;28;20070;-67
2024/03/04 09:31:59;;;;;;;94.07;33.30;;;8.30;99.90;;;;;;5079762;28;20119;-67
2024/03/04 09:34:25;;;;;;;67.78;33.03;;;8.30;99.90;;;;;;5079115;28;20381;-67
2024/03/04 09:36:51;;;;;;;67.72;32.08;;;8.40;99.90;;;;;;5082884;28;20539;-67
2024/03/04 09:39:16;;;;;;;64.82;33.67;;;8.30;99.90;;;;;;5082297;28;20033;-67
2024/03/04 09:41:42;;;;;;;60.33;32.92;;;8.30;99.90;;;;;;5080528;28;20039;-67
2024/03/04 09:44:08;;;;;;;53.25;32.08;;;8.30;99.90;;;;;;5072895;28;20048;-67
2024/03/04 09:46:36;;;;;;;58.78;31.73;;;8.30;99.90;;;;;;5078371;28;20482;-67
2024/03/04 09:49:02;;;;;;;52.88;31.73;;;8.30;99.90;;;;;;5076395;28;20161;-67
2024/03/04 09:51:30;;;;;;;56.90;32.40;;;8.20;99.90;;;;;;5080224;28;20048;-67
2024/03/04 09:54:01;;;;;;;60.50;31.95;;;8.30;99.90;;;;;;5080137;28;20044;-67
2024/03/04 09:56:27;;;;;;;59.22;33.58;;;8.20;99.90;;;;;;5078488;28;20066;-67
2024/03/04 09:58:54;;;;;;;60.92;33.97;;;8.30;99.90;;;;;;5078794;28;20107;-67
2024/03/04 10:01:20;;;;;;;67.25;34.17;;;8.30;99.90;;;;;;5077588;28;20041;-67
2024/03/04 10:03:47;;;;;;;53.70;32.00;;;8.30;99.90;;;;;;5077112;28;20032;-67
2024/03/04 10:06:13;;;;;;;64.03;32.83;;;8.40;99.90;;;;;;5080677;28;20048;-66
2024/03/04 10:08:39;;;;;;;60.25;34.20;;;8.40;99.90;;;;;;5072791;28;20474;-67
2024/03/04 10:11:04;;;;;;;57.38;33.17;;;8.30;99.90;;;;;;5078707;28;20126;-67
2024/03/04 10:13:31;;;;;;;63.38;33.85;;;8.40;99.90;;;;;;5111849;27;20033;-67
2024/03/04 10:15:57;;;;;;;69.30;33.47;;;8.40;99.90;;;;;;5094059;28;20387;-66
2024/03/04 10:18:22;;;;;;;69.65;34.38;;;8.40;99.90;;;;;;5079422;28;20036;-68
2024/03/04 10:20:48;;;;;;;67.68;34.38;;;8.30;99.90;;;;;;5079728;28;20044;-66
2024/03/04 10:23:14;;;;;;;66.22;34.75;;;8.40;99.90;;;;;;5082074;28;20036;-66
2024/03/04 10:25:40;;;;;;;69.00;33.35;;;8.40;99.90;;;;;;5076396;28;20051;-66
2024/03/04 10:28:06;;;;;;;69.30;34.33;;;8.40;99.90;;;;;;5079192;28;20028;-66
2024/03/04 10:30:32;;;;;;;66.55;35.67;;;8.40;99.90;;;;;;5077405;28;20044;-66
2024/03/04 10:33:05;;;;;;;71.55;35.78;;;8.50;99.90;;;;;;5077920;28;20036;-66
2024/03/04 10:35:31;;;;;;;60.55;33.80;;;8.50;99.90;;;;;;5077659;28;20487;-66
2024/03/04 10:38:02;;;;;;;75.35;38.47;;;8.50;99.90;;;;;;5082469;28;20032;-66
2024/03/04 10:40:29;;;;;;;78.20;38.00;;;8.50;99.90;;;;;;5079346;28;20043;-66
2024/03/04 10:42:58;;;;;;;74.00;38.60;;;8.50;99.90;;;;;;5079130;28;20762;-66
2024/03/04 10:45:31;;;;;;;82.60;38.25;;;8.60;99.90;;;;;;5075484;28;20049;-66
2024/03/04 10:47:57;;;;;;;72.05;37.22;;;8.60;99.90;;;;;;5112818;28;20040;-66
2024/03/04 10:50:23;;;;;;;72.22;36.97;;;8.60;99.90;;;;;;5076590;28;20383;-67
2024/03/04 10:52:48;;;;;;;83.07;39.80;;;8.60;99.90;;;;;;5063619;28;20043;-66
2024/03/04 10:55:17;;;;;;;75.63;39.13;;;8.70;99.90;;;;;;5075044;28;20395;-66
2024/03/04 10:57:44;;;;;;;78.72;40.28;;;8.60;99.90;;;;;;5070876;28;20093;-66
2024/03/04 11:00:25;;;;;;;83.70;38.03;;;8.70;99.90;;;;;;5078092;28;20094;-67
2024/03/04 11:02:53;;;;;;;81.55;38.80;;;8.60;99.90;;;;;;5079676;28;20120;-67
2024/03/04 11:05:22;;;;;;;73.55;36.17;;;8.70;99.90;;;;;;5107982;28;20050;-66
2024/03/04 11:07:51;;;;;;;76.35;38.50;;;8.70;99.90;;;;;;5076992;28;20496;-67
2024/03/04 11:10:29;;;;;;;75.10;37.78;;;8.70;99.90;;;;;;5080180;28;20458;-66
2024/03/04 11:13:10;;;;;;;79.93;40.20;;;8.80;99.90;;;;;;5077626;28;20091;-66
2024/03/04 11:15:43;;;;;;;72.55;37.72;;;8.80;99.90;;;;;;5075252;28;20062;-66
2024/03/04 11:18:27;;;;;;;76.45;39.20;;;8.80;99.90;;;;;;5076937;28;20053;-66
2024/03/04 11:20:53;;;;;;;78.07;39.05;;;8.80;99.90;;;;;;5079982;28;20037;-66
2024/03/04 11:23:20;;;;;;;73.72;37.45;;;8.80;99.90;;;;;;5075632;28;20044;-66
2024/03/04 11:25:46;;;;;;;78.65;39.08;;;8.80;99.90;;;;;;5084919;28;20051;-66
2024/03/04 11:28:18;;;;;;;75.95;37.03;;;8.80;99.90;;;;;;5081239;28;20037;-66
2024/03/04 11:30:47;;;;;;;74.68;33.95;;;8.80;99.90;;;;;;5083074;28;20031;-67
2024/03/04 11:33:39;;;;;;;72.13;32.50;;;8.80;99.90;;;;;;5081179;28;20091;-67
2024/03/04 11:36:07;;;;;;;62.22;30.88;;;8.80;99.90;;;;;;5082136;28;20050;-66
2024/03/04 11:38:45;;;;;;;67.43;31.65;;;8.80;99.90;;;;;;5116204;27;20044;-66
2024/03/04 11:41:11;;;;;;;59.28;30.38;;;8.80;99.90;;;;;;5080592;28;20048;-66
2024/03/04 11:43:52;;;;;;;67.20;30.63;;;8.80;99.90;;;;;;5081061;28;20134;-66
2024/03/04 11:46:19;;;;;;;60.22;29.13;;;8.80;99.90;;;;;;5082353;28;20040;-66
2024/03/04 11:48:48;;;;;;;63.78;29.98;;;8.90;99.90;;;;;;5082976;28;20043;-67
2024/03/04 11:51:34;;;;;;;58.60;28.65;;;8.80;99.90;;;;;;5080152;28;20044;-66
2024/03/04 11:54:03;;;;;;;54.55;28.20;;;8.90;99.90;;;;;;5082013;28;20056;-66
2024/03/04 11:56:29;;;;;;;48.00;26.35;;;8.90;99.90;;;;;;5080845;28;20036;-66
2024/03/04 11:58:55;;;;;;;53.70;26.85;;;8.90;99.90;;;;;;5112416;27;20039;-66
2024/03/04 12:01:21;;;;;;;48.65;25.55;;;8.90;99.90;;;;;;5080214;28;20943;-67
2024/03/04 12:03:52;;;;;;;53.25;25.98;;;8.90;99.90;;;;;;5082159;28;20115;-66
2024/03/04 12:06:17;;;;;;;47.38;25.98;;;8.90;99.90;;;;;;5081160;28;20093;-66
2024/03/04 12:08:43;;;;;;;47.58;25.35;;;8.90;99.90;;;;;;5085650;28;20444;-67
2024/03/04 12:11:09;;;;;;;45.75;24.77;;;8.90;99.90;;;;;;5083335;28;20047;-67
2024/03/04 12:13:35;;;;;;;48.75;25.02;;;8.90;99.90;;;;;;5082960;28;20482;-67
2024/03/04 12:16:00;;;;;;;47.78;23.67;;;8.90;99.90;;;;;;5052928;28;20068;-66
2024/03/04 12:18:29;;;;;;;47.00;22.90;;;8.90;99.90;;;;;;5082979;28;20064;-67
2024/03/04 12:20:55;;;;;;;45.03;22.98;;;8.90;99.90;;;;;;5082038;28;20382;-67
2024/03/04 12:23:21;;;;;;;39.85;22.38;;;8.90;99.90;;;;;;5079161;28;20504;-66
2024/03/04 12:25:48;;;;;;;38.47;22.00;;;8.90;99.90;;;;;;5083443;28;20067;-66
2024/03/04 12:28:17;;;;;;;39.35;22.65;;;8.90;99.90;;;;;;5080428;28;20394;-67
2024/03/04 12:30:43;;;;;;;37.90;21.92;;;8.90;99.90;;;;;;5081742;28;20482;-66
2024/03/04 12:33:08;;;;;;;36.53;20.88;;;8.90;99.90;;;;;;5080705;28;20051;-66